Date,TemperatureHighF,TemperatureAvgF,TemperatureLowF,DewpointHighF,DewpointAvgF,DewpointLowF,HumidityHigh,HumidityAvg,HumidityLow,PressureMaxIn,PressureMinIn,WindSpeedMaxMPH,WindSpeedAvgMPH,GustSpeedMaxMPH,PrecipitationSumIn
2013-1-1,32.5,24.6,12.6,30.6,19.1,8.6,93,79,69,30.13,30.01,13,4,13,0.00
2013-1-2,23.5,17.1,10.6,15.8,12.2,8.1,89,81,71,30.23,30.09,11,5,11,0.00
2013-1-3,28.9,21.8,11.7,24.4,15.2,5.0,85,76,62,30.20,30.10,22,8,22,0.00
2013-1-4,28.8,26.3,21.9,23.4,19.0,16.3,80,73,63,30.23,30.11,28,13,28,0.02
2013-1-5,36.3,29.0,20.5,29.5,22.6,16.7,86,77,67,30.33,30.09,15,8,15,0.00
2013-1-6,37.0,34.3,29.8,32.9,29.4,26.4,91,82,77,30.27,29.95,19,8,19,0.00
2013-1-7,37.4,31.4,27.5,27.9,25.7,23.2,91,80,64,30.44,30.20,21,7,21,0.00
2013-1-8,41.0,33.6,27.3,30.2,26.1,22.1,81,74,60,30.29,30.20,15,6,15,0.00
2013-1-9,46.6,40.8,34.5,36.3,32.7,28.8,82,73,62,30.48,30.11,25,10,25,0.02
2013-1-10,42.8,34.4,25.3,34.2,29.4,23.7,95,82,68,30.58,30.17,10,2,10,0.01
2013-1-11,62.2,51.3,36.3,54.3,46.2,31.8,99,83,64,30.17,29.78,23,9,23,0.40
2013-1-12,62.1,54.7,45.9,55.4,50.9,44.4,99,87,79,30.01,29.82,19,7,19,0.38
2013-1-13,66.0,46.2,36.7,62.6,45.3,36.1,99,97,74,30.05,29.67,24,6,24,0.78
2013-1-14,36.7,28.6,26.4,36.1,22.7,19.0,98,79,72,30.45,30.05,17,5,17,0.01
2013-1-15,32.5,28.5,24.4,25.7,20.5,17.2,79,72,59,30.43,30.12,10,4,10,0.00
2013-1-16,38.1,33.3,30.9,28.4,25.3,23.0,83,72,58,30.12,29.88,21,8,21,0.00
2013-1-17,38.7,33.4,23.4,30.9,25.2,11.5,85,72,57,30.32,30.00,18,6,18,0.00
2013-1-18,36.7,28.6,20.5,24.1,17.2,9.1,77,62,54,30.48,30.05,30,11,30,0.00
2013-1-19,52.9,44.6,36.1,34.0,28.0,23.9,62,52,43,30.07,29.70,31,16,31,0.00
2013-1-20,46.4,28.2,20.1,35.1,15.2,7.7,68,58,49,30.20,29.68,31,12,31,0.00
2013-1-21,23.0,17.6,10.2,13.1,7.1,-0.4,81,63,49,30.16,29.97,23,9,23,0.00
2013-1-22,13.8,8.0,5.0,5.0,-0.3,-3.3,87,69,55,30.32,30.12,18,8,18,0.00
2013-1-23,18.1,12.6,5.5,12.4,4.0,-3.1,87,68,48,30.31,30.08,17,6,17,0.00
2013-1-24,23.0,16.5,12.4,13.6,8.9,4.3,89,72,49,30.57,30.09,14,4,14,0.00
2013-1-25,22.6,18.2,15.1,18.3,11.7,5.4,91,75,64,30.51,30.03,11,4,11,0.00
2013-1-26,27.7,23.0,16.0,21.0,17.4,10.6,91,79,63,30.45,30.07,15,4,15,0.00
2013-1-27,34.5,24.8,12.9,26.4,17.3,9.3,87,73,56,30.51,30.19,13,4,13,0.00
2013-1-28,50.2,44.0,32.4,49.8,42.4,26.1,99,94,77,30.19,29.91,25,10,25,0.04
2013-1-29,63.9,52.2,36.5,56.8,49.9,36.3,99,92,75,30.04,29.55,29,8,29,0.04
2013-1-30,66.7,56.2,35.6,58.3,51.0,31.8,99,83,71,29.55,29.17,37,14,37,0.47
2013-1-31,35.8,25.3,17.6,32.7,17.0,5.7,92,71,55,29.90,29.31,28,14,28,0.00
2013-2-1,20.1,15.4,11.5,11.8,7.2,4.6,82,70,59,30.31,29.90,26,12,26,0.00
2013-2-2,24.4,19.3,13.8,21.4,15.1,4.8,92,84,67,30.29,29.96,17,7,17,0.00
2013-2-3,23.5,18.3,15.3,18.0,13.5,11.3,92,82,67,30.04,29.90,19,6,19,0.00
2013-2-4,26.2,21.7,17.1,22.8,18.2,11.5,94,86,69,30.05,29.87,12,4,12,0.00
2013-2-5,30.4,25.3,20.5,26.2,21.3,18.3,94,85,69,29.97,29.85,15,4,15,0.05
2013-2-6,34.5,27.7,20.3,26.8,19.5,15.3,90,72,52,30.32,29.96,12,3,12,0.01
2013-2-7,43.2,31.6,22.3,34.2,25.1,15.8,95,77,56,30.28,29.78,12,3,12,0.00
2013-2-8,42.1,31.3,25.9,38.3,27.6,18.9,99,86,70,30.32,29.72,19,2,19,0.21
2013-2-9,32.5,25.5,20.1,24.3,20.3,17.1,90,81,68,30.45,30.30,8,1,8,0.01
2013-2-10,50.5,37.5,19.9,41.9,26.0,17.2,91,65,42,30.30,29.75,28,6,28,0.00
2013-2-11,48.9,41.0,33.4,45.3,33.6,23.7,92,75,63,29.93,29.64,41,15,41,0.21
2013-2-12,38.8,32.5,26.1,27.7,24.5,22.8,88,72,60,30.09,29.92,21,6,21,0.00
2013-2-13,35.1,28.7,23.5,26.6,23.8,21.4,93,82,69,29.93,29.75,9,2,9,0.00
2013-2-14,41.0,35.6,28.8,35.8,30.8,25.5,89,83,68,29.91,29.75,23,10,23,0.00
2013-2-15,42.1,30.9,27.1,27.7,22.3,16.0,80,70,61,30.19,29.90,15,5,15,0.00
2013-2-16,53.2,23.6,18.3,21.9,16.7,12.7,93,75,56,30.11,29.83,13,4,13,0.00
2013-2-17,26.6,19.3,13.5,15.6,10.2,6.1,89,68,49,30.24,30.03,15,5,15,0.00
2013-2-18,50.0,32.3,13.5,33.4,20.1,5.9,75,61,49,30.25,29.67,23,9,23,0.00
2013-2-19,50.0,30.2,17.4,40.5,24.0,8.8,95,78,52,29.99,29.53,37,16,37,0.22
2013-2-20,24.1,20.6,16.9,15.6,12.1,7.7,92,70,53,30.25,29.99,25,10,25,0.00
2013-2-21,34.7,22.3,20.5,18.7,16.0,13.3,87,77,65,30.38,30.22,14,5,14,0.00
2013-2-22,38.8,30.6,21.9,37.6,27.7,15.6,97,89,77,30.27,29.89,15,5,15,0.11
2013-2-23,42.3,32.6,29.7,31.8,25.4,21.4,91,75,61,30.22,29.90,17,7,17,0.01
2013-2-24,38.7,31.4,25.5,26.4,23.1,19.0,82,71,58,30.16,29.91,20,6,20,0.00
2013-2-25,40.3,31.3,21.7,31.5,26.3,19.6,94,82,69,30.23,30.07,10,3,10,0.00
2013-2-26,39.4,33.0,30.0,39.0,31.1,24.4,99,93,83,30.09,29.46,15,5,15,1.06
2013-2-27,44.6,38.1,33.1,41.7,36.7,31.6,99,95,81,29.64,29.45,24,8,24,0.25
2013-2-28,38.5,34.0,31.6,36.0,31.6,27.1,99,91,83,29.94,29.59,15,7,15,0.05
2013-3-1,31.6,29.3,27.1,27.3,23.5,20.8,86,79,70,30.08,29.93,17,7,17,0.00
2013-3-2,31.1,27.1,24.4,25.5,23.5,21.4,90,86,74,30.06,30.02,14,6,14,0.00
2013-3-3,30.4,25.9,21.6,21.6,18.9,15.8,89,75,60,30.07,30.00,14,5,14,0.00
2013-3-4,36.3,26.6,19.0,24.6,20.2,16.0,89,77,57,30.16,30.06,9,3,9,0.00
2013-3-5,32.9,28.8,23.9,28.8,25.0,20.3,92,86,76,30.12,29.73,23,7,23,0.00
2013-3-6,40.5,34.4,31.6,33.1,30.1,28.4,91,84,75,30.21,29.73,22,7,22,0.00
2013-3-7,39.4,34.9,32.5,32.5,30.8,29.1,93,85,75,30.39,30.19,11,4,11,0.00
2013-3-8,42.4,33.3,26.4,30.7,27.3,24.8,95,80,62,30.50,30.38,9,2,9,0.00
2013-3-9,43.0,34.3,24.8,37.6,30.1,23.4,95,85,63,30.44,30.07,8,2,8,0.00
2013-3-10,70.2,58.8,41.2,43.2,36.3,30.6,87,44,29,30.07,29.83,23,8,23,0.00
2013-3-11,63.0,52.4,39.2,50.0,43.4,32.5,91,73,36,29.84,29.52,37,11,37,0.66
2013-3-12,39.6,35.4,32.2,33.4,29.8,25.5,90,80,70,29.97,29.77,23,10,23,0.00
2013-3-13,33.8,31.2,28.4,27.9,22.2,15.4,88,69,52,30.19,29.90,21,10,21,0.00
2013-3-14,41.7,32.1,23.0,25.5,20.9,16.2,81,64,48,30.27,30.11,16,6,21,0.00
2013-3-15,45.0,36.6,31.8,35.4,30.5,23.2,99,79,67,30.11,29.85,17,6,17,0.11
2013-3-16,35.4,32.5,30.4,35.2,31.6,28.2,99,97,89,30.03,29.70,14,4,14,0.09
2013-3-17,33.6,30.7,28.8,30.2,24.0,20.3,95,76,62,30.25,30.03,15,4,15,0.09
2013-3-18,47.8,35.3,29.5,47.7,32.2,21.2,99,89,72,30.15,29.55,22,6,22,0.15
2013-3-19,37.8,30.8,24.4,34.9,21.2,16.9,90,68,52,29.98,29.69,33,13,33,0.00
2013-3-20,32.9,27.8,21.6,22.6,16.1,8.8,79,62,47,30.21,29.91,18,8,18,0.00
2013-3-21,32.0,24.7,16.2,23.5,17.2,10.4,83,73,62,29.95,29.89,18,8,18,0.00
2013-3-22,41.4,31.3,27.0,25.7,20.9,18.1,74,66,49,30.02,29.95,16,6,17,0.00
2013-3-23,41.4,32.9,25.3,29.7,25.9,21.6,91,76,59,30.10,29.99,11,3,11,0.00
2013-3-24,34.9,32.5,30.9,28.8,26.9,24.3,85,80,69,30.04,29.55,23,9,23,0.00
2013-3-25,35.1,32.6,31.3,34.3,32.0,28.4,99,98,81,29.88,29.47,22,9,22,0.13
2013-3-26,46.8,37.6,34.0,33.8,31.4,19.4,90,79,56,30.19,29.87,17,6,17,0.13
2013-3-27,48.4,39.6,33.4,32.2,29.2,22.1,92,68,45,30.20,30.05,17,8,17,0.00
2013-3-28,45.9,39.8,32.5,34.2,28.3,24.4,74,64,53,30.29,30.20,15,6,15,0.00
2013-3-29,50.4,41.6,30.9,32.4,26.8,22.1,81,57,37,30.30,30.22,13,4,15,0.00
2013-3-30,59.0,42.8,24.8,35.1,27.4,16.7,81,58,25,30.24,29.96,21,4,21,0.00
2013-3-31,58.6,49.8,45.0,46.0,36.1,26.4,81,60,47,29.95,29.67,20,7,20,0.01
2013-4-1,48.7,38.4,30.9,41.2,21.0,11.8,82,51,31,30.11,29.68,18,8,18,0.01
2013-4-2,43.7,34.2,23.5,21.7,15.1,9.1,70,47,28,30.33,30.11,17,7,17,0.00
2013-4-3,42.4,34.3,25.7,23.0,16.3,10.0,68,48,27,30.44,30.24,13,5,15,0.00
2013-4-4,47.7,36.4,26.6,30.6,19.6,10.2,63,51,25,30.40,29.96,13,4,13,0.00
2013-4-5,48.9,41.4,36.0,35.6,27.5,17.8,84,59,39,30.23,29.94,18,5,18,0.00
2013-4-6,58.1,44.8,30.6,24.6,16.3,9.7,63,36,16,30.28,29.86,21,7,21,0.00
2013-4-7,67.8,59.1,43.7,46.4,36.9,12.0,77,46,17,30.04,29.72,31,11,31,0.00
2013-4-8,73.2,57.7,41.0,55.9,46.2,36.7,88,67,48,30.07,29.78,34,10,34,0.00
2013-4-9,61.3,48.3,42.4,48.6,42.8,26.4,92,82,61,30.19,29.86,11,4,11,0.00
2013-4-10,49.3,43.4,40.6,48.2,42.9,40.1,99,98,90,30.04,29.81,21,5,21,0.85
2013-4-11,40.8,39.3,38.3,40.5,39.1,37.8,99,99,96,29.98,29.60,20,9,20,1.30
2013-4-12,45.7,41.5,38.7,43.0,37.9,33.1,99,87,70,29.85,29.49,25,9,25,0.11
2013-4-13,44.4,41.2,38.8,37.9,34.4,30.2,89,77,68,30.03,29.84,25,10,25,0.01
2013-4-14,48.2,41.7,35.1,40.5,35.7,30.7,92,79,69,30.14,29.95,12,4,18,0.00
2013-4-15,72.1,60.0,41.9,53.6,47.7,40.1,95,66,48,30.01,29.91,21,7,21,0.00
2013-4-16,61.7,56.5,50.7,58.6,52.3,48.9,98,86,74,30.20,29.91,16,4,16,0.15
2013-4-17,50.5,45.9,43.2,50.0,40.7,-0.6,99,82,69,30.32,30.04,17,7,17,0.00
2013-4-18,85.5,65.7,43.3,64.9,55.8,40.1,99,73,40,30.05,29.64,34,11,34,0.00
2013-4-19,73.4,50.3,36.9,60.1,42.0,30.2,95,74,52,29.84,29.34,34,15,34,0.31
2013-4-20,45.9,39.3,32.7,32.2,26.6,22.1,86,62,41,30.44,29.83,24,9,24,0.00
2013-4-21,59.0,40.4,35.8,59.0,28.8,23.0,77,63,52,30.62,30.43,15,6,15,0.00
2013-4-22,54.7,45.4,36.9,42.3,36.1,29.1,89,70,55,30.47,30.19,11,4,12,0.00
2013-4-23,73.9,60.0,43.2,54.5,39.6,30.2,94,50,28,30.20,29.86,21,8,21,0.02
2013-4-24,62.2,46.5,37.6,55.6,43.6,32.4,97,90,71,30.18,29.74,20,7,20,0.90
2013-4-25,53.4,43.5,34.3,43.5,34.2,28.8,88,70,49,30.37,30.17,27,7,27,0.07
2013-4-26,55.4,44.9,32.2,41.7,34.8,28.4,90,69,48,30.48,30.36,8,3,8,0.00
2013-4-27,65.3,50.8,38.3,46.2,39.2,34.2,85,66,34,30.38,30.09,11,3,11,0.00
2013-4-28,62.1,54.7,45.0,58.5,51.2,41.4,98,88,73,30.10,29.84,13,3,13,0.38
2013-4-29,70.0,60.9,56.8,59.4,55.8,53.6,99,84,61,29.98,29.85,10,4,10,0.02
2013-4-30,78.1,64.1,54.5,58.1,55.1,53.1,96,74,46,30.10,29.97,18,5,18,0.00
2013-5-1,80.6,64.5,55.4,61.3,54.8,50.0,89,72,48,30.24,30.09,15,4,15,0.00
2013-5-2,78.3,63.7,55.4,55.6,50.4,44.8,93,64,40,30.28,30.14,12,4,12,0.00
2013-5-3,81.7,69.2,56.3,81.5,42.2,18.5,79,42,10,30.16,30.05,19,6,19,0.00
2013-5-4,73.4,61.4,53.8,50.7,43.9,32.0,83,55,30,30.14,30.06,17,5,17,0.00
2013-5-5,64.8,58.2,53.4,50.0,47.2,38.5,86,67,40,30.10,30.00,13,4,13,0.00
2013-5-6,65.8,57.9,53.2,50.7,47.2,41.4,87,68,49,30.06,29.99,10,3,10,0.00
2013-5-7,66.4,58.3,51.6,55.6,52.5,48.6,94,81,66,30.06,29.99,11,2,11,0.00
2013-5-8,69.8,60.9,56.1,58.3,54.0,51.1,86,78,66,30.01,29.95,7,2,7,0.00
2013-5-9,77.0,65.8,54.1,60.3,53.4,41.7,91,67,38,30.00,29.93,8,2,8,0.00
2013-5-10,74.5,65.0,51.6,63.9,59.3,44.8,98,83,42,29.97,29.75,20,7,20,0.47
2013-5-11,58.6,51.2,45.7,50.0,46.5,35.1,95,84,66,29.94,29.80,26,6,26,0.04
2013-5-12,54.7,45.5,38.3,35.8,31.5,24.8,85,60,35,30.11,29.92,20,8,20,0.00
2013-5-13,57.2,45.4,35.4,32.9,27.7,22.8,79,52,30,30.20,30.09,13,4,13,0.00
2013-5-14,76.8,59.5,42.8,55.0,39.8,27.5,63,49,34,30.15,29.75,22,7,22,0.00
2013-5-15,88.7,75.8,67.3,60.4,55.1,43.0,73,52,22,29.80,29.66,22,7,22,0.04
2013-5-16,87.3,71.7,55.6,53.6,45.5,30.2,78,44,14,29.98,29.77,8,2,8,0.00
2013-5-17,64.0,58.7,55.4,52.3,49.5,46.8,82,72,61,30.14,29.98,14,4,14,0.00
2013-5-18,66.2,60.2,54.7,54.3,52.2,49.6,89,75,62,30.14,30.03,10,3,10,0.00
2013-5-19,81.5,67.3,56.8,66.9,61.4,53.8,98,82,60,30.04,29.92,11,2,11,0.00
2013-5-20,91.4,78.8,65.7,73.0,67.4,63.0,93,71,44,29.96,29.81,19,5,19,0.00
2013-5-21,90.0,80.5,72.9,68.4,62.6,55.4,84,58,32,29.87,29.74,24,7,24,0.00
2013-5-22,85.8,76.9,69.1,64.6,61.3,56.7,79,60,39,29.81,29.67,25,8,25,0.00
2013-5-23,73.2,60.7,45.7,60.4,54.5,40.6,97,81,55,30.12,29.74,17,7,17,0.38
2013-5-24,55.2,48.6,43.5,41.0,38.0,34.5,78,67,53,30.35,30.12,18,6,18,0.00
2013-5-25,65.1,52.6,38.3,41.7,37.1,32.5,91,59,34,30.41,30.27,10,2,10,0.00
2013-5-26,68.9,58.5,49.5,41.5,36.2,27.9,68,45,24,30.36,30.24,11,3,11,0.00
2013-5-27,59.2,55.0,48.7,54.1,44.5,34.2,94,69,43,30.28,30.00,10,3,10,0.34
2013-5-28,85.1,71.2,55.8,69.8,63.1,53.2,98,78,55,30.02,29.87,22,6,22,0.15
2013-5-29,90.3,79.3,72.9,68.2,64.0,60.6,81,60,45,30.04,29.88,25,8,25,0.00
2013-5-30,92.5,81.0,70.2,68.7,63.5,59.0,78,57,38,30.12,30.00,16,5,16,0.00
2013-5-31,88.3,75.8,69.1,71.8,66.0,60.6,95,73,49,30.04,29.93,24,6,24,1.10
2013-6-1,82.4,73.5,66.6,71.6,67.1,62.8,96,81,62,29.95,29.74,20,6,20,0.12
2013-6-2,78.6,70.7,62.1,68.5,61.5,53.8,97,74,51,29.96,29.72,20,7,20,0.01
2013-6-3,66.4,58.8,52.9,54.5,48.5,41.5,96,70,43,30.11,29.96,11,4,12,0.01
2013-6-4,68.4,58.9,47.8,54.5,47.0,40.1,79,65,45,30.22,30.10,11,3,11,0.00
2013-6-5,67.5,62.5,54.3,57.7,53.4,46.6,85,72,59,30.17,29.97,15,4,15,0.00
2013-6-6,61.7,59.4,57.0,57.9,55.2,51.4,97,86,72,29.98,29.85,15,5,15,0.01
2013-6-7,60.6,59.1,57.6,57.0,56.1,55.0,95,90,84,29.91,29.85,9,3,9,0.00
2013-6-8,71.6,63.9,58.5,58.3,56.1,52.9,90,77,57,30.09,29.90,8,2,8,0.00
2013-6-9,81.0,68.6,60.6,66.0,60.0,51.6,90,75,56,30.12,29.95,12,3,12,0.00
2013-6-10,76.8,69.1,66.9,69.8,66.5,64.4,99,92,72,29.95,29.75,11,2,11,0.59
2013-6-11,86.4,73.8,66.7,68.5,66.3,64.2,98,79,52,29.91,29.78,12,3,12,0.00
2013-6-12,82.6,72.6,67.3,69.6,66.3,63.5,91,81,64,29.93,29.65,13,2,13,0.00
2013-6-13,79.2,69.9,64.0,69.4,63.0,58.5,99,80,56,29.91,29.51,28,5,28,0.76
2013-6-14,75.0,68.1,62.2,60.4,57.9,54.1,83,71,52,30.08,29.90,15,4,15,0.00
2013-6-15,82.4,69.6,56.5,63.7,58.1,53.6,91,69,42,30.12,29.96,12,3,12,0.00
2013-6-16,86.0,75.4,63.7,69.1,66.2,62.1,99,74,53,29.97,29.84,18,6,18,0.44
2013-6-17,83.1,73.5,63.9,73.2,66.8,59.5,99,81,57,29.96,29.87,11,3,11,0.60
2013-6-18,72.0,67.2,62.8,66.6,61.6,50.7,95,83,65,30.06,29.86,15,4,15,0.00
2013-6-19,71.6,66.0,60.8,59.5,55.4,50.0,81,69,54,30.18,30.04,14,4,15,0.00
2013-6-20,79.5,68.1,52.9,63.9,56.3,48.9,89,67,47,30.23,30.17,13,3,13,0.00
2013-6-21,89.4,77.4,64.0,63.3,59.7,55.9,79,56,36,30.23,30.10,11,3,11,0.00
2013-6-22,95.4,80.1,70.9,73.9,67.3,60.8,87,66,43,30.15,30.01,15,5,15,0.28
2013-6-23,94.3,81.5,71.6,70.9,67.8,62.4,89,66,37,30.12,29.99,23,4,23,0.00
2013-6-24,90.9,81.1,68.7,71.4,67.2,62.4,88,64,45,30.10,29.95,15,5,15,0.00
2013-6-25,90.7,79.7,69.6,77.2,69.6,63.0,97,72,55,30.00,29.81,20,6,20,0.64
2013-6-26,85.8,74.9,68.4,73.8,69.7,66.0,98,85,60,29.92,29.78,15,4,15,0.20
2013-6-27,81.9,73.4,68.5,73.9,70.3,67.5,99,91,68,29.80,29.65,11,3,11,0.52
2013-6-28,81.9,70.5,63.7,72.3,66.7,57.9,99,89,62,29.65,29.54,15,2,15,0.89
2013-6-29,76.1,69.0,62.4,70.0,64.9,62.1,99,87,73,29.72,29.56,13,3,13,0.01
2013-6-30,75.0,71.4,69.3,66.0,63.5,61.9,87,77,68,29.92,29.71,13,5,13,0.00
2013-7-1,70.9,69.0,66.0,67.3,65.1,60.8,99,87,75,30.01,29.89,17,7,17,0.07
2013-7-2,73.9,69.2,67.6,67.8,66.4,64.8,95,91,79,30.07,29.97,11,4,11,0.00
2013-7-3,87.4,75.7,65.1,73.0,68.4,64.8,99,80,52,30.12,30.03,11,3,11,0.00
2013-7-4,81.1,74.0,69.4,73.8,70.6,67.1,99,90,72,30.17,30.10,12,3,12,0.65
2013-7-5,80.4,73.2,69.6,73.9,70.8,69.3,99,93,77,30.14,30.07,11,2,11,0.65
2013-7-6,82.8,74.4,70.3,74.7,71.9,69.1,99,92,72,30.14,29.99,9,3,9,0.46
2013-7-7,83.7,73.4,68.7,72.3,69.1,65.7,99,87,60,30.08,29.99,14,5,14,0.26
2013-7-8,86.9,73.6,66.7,75.2,70.2,66.4,99,90,66,30.09,30.02,12,4,16,0.80
2013-7-9,88.5,76.2,70.7,77.9,74.0,70.3,99,94,68,30.04,29.94,15,4,15,1.06
2013-7-10,88.5,76.8,68.7,79.2,73.0,65.8,99,88,72,29.95,29.77,20,5,20,0.97
2013-7-11,79.7,73.5,69.6,66.9,61.0,58.1,79,66,50,30.06,29.93,12,4,12,0.00
2013-7-12,78.3,72.2,65.8,69.1,64.2,57.9,87,76,61,30.14,30.05,12,4,12,0.00
2013-7-13,80.2,74.7,67.3,71.1,67.7,63.1,91,79,69,30.22,30.11,11,4,11,0.00
2013-7-14,84.4,77.8,70.2,75.2,72.3,68.0,95,83,73,30.27,30.20,11,2,11,0.00
2013-7-15,92.5,83.4,75.7,78.3,75.0,72.7,91,77,61,30.32,30.25,9,2,9,0.00
2013-7-16,93.0,84.5,77.0,78.8,75.9,73.9,91,76,58,30.31,30.24,10,2,10,0.00
2013-7-17,93.4,84.6,77.2,77.4,75.4,73.6,91,75,55,30.30,30.16,11,2,11,0.00
2013-7-18,95.7,86.3,77.5,77.0,75.2,73.2,93,71,50,30.18,29.99,12,3,12,0.00
2013-7-19,95.2,85.7,77.5,77.4,74.5,69.3,87,70,52,30.02,29.78,21,6,21,0.02
2013-7-20,83.7,75.6,67.1,75.6,71.5,66.7,99,88,69,29.92,29.78,17,4,17,2.27
2013-7-21,81.5,76.8,72.0,73.0,70.0,66.0,95,80,65,30.00,29.91,10,3,10,0.00
2013-7-22,77.0,71.7,66.6,72.7,67.2,62.1,99,86,72,29.98,29.78,11,1,11,0.09
2013-7-23,89.4,75.1,64.8,75.4,68.3,60.4,99,82,49,29.83,29.68,17,5,17,0.00
2013-7-24,72.5,67.3,64.2,63.0,55.5,52.7,78,66,53,30.05,29.82,18,5,18,0.00
2013-7-25,76.5,68.6,57.9,58.6,55.7,51.8,89,65,47,30.12,30.04,10,2,10,0.00
2013-7-26,82.9,69.7,57.0,61.5,57.9,54.1,92,68,45,30.12,29.95,10,2,10,0.00
2013-7-27,75.6,67.7,63.0,68.5,63.4,59.0,99,87,68,29.95,29.78,15,4,15,0.81
2013-7-28,71.1,62.3,54.1,59.7,54.8,51.1,96,78,51,30.03,29.88,21,4,21,0.04
2013-7-29,76.8,64.8,55.4,62.6,56.5,51.4,90,75,58,30.19,30.03,13,3,13,0.00
2013-7-30,78.1,68.5,57.4,62.8,60.2,56.5,98,77,55,30.25,30.13,8,1,8,0.00
2013-7-31,82.0,72.5,65.7,68.2,64.1,59.7,96,76,58,30.14,29.92,11,3,11,0.00
2013-8-1,80.8,70.6,64.0,68.7,65.6,61.9,99,85,57,29.95,29.88,17,3,17,0.46
2013-8-2,73.2,66.9,58.3,68.5,61.9,55.4,97,85,63,29.99,29.86,14,4,14,0.08
2013-8-3,82.0,72.5,66.4,70.2,64.1,56.8,99,78,44,30.02,29.91,9,2,13,0.00
2013-8-4,75.7,69.4,65.5,63.3,57.5,53.4,84,67,51,30.17,30.01,15,3,15,0.00
2013-8-5,75.4,67.8,60.1,61.3,57.1,50.7,80,69,52,30.14,29.99,8,1,8,0.00
2013-8-6,85.8,72.4,63.3,65.5,62.3,58.5,89,72,48,30.01,29.92,9,2,9,0.01
2013-8-7,85.5,74.4,68.2,74.1,68.8,62.4,99,83,68,29.96,29.86,11,3,11,0.00
2013-8-8,75.7,72.8,71.1,72.5,70.2,65.1,99,92,81,29.99,29.90,11,2,11,0.00
2013-8-9,84.9,72.9,68.4,65.1,60.4,55.6,81,66,42,30.02,29.92,11,2,11,0.00
2013-8-10,75.9,71.0,66.4,66.0,63.0,60.8,91,76,63,30.13,30.02,6,2,8,0.00
2013-8-11,83.5,71.9,62.8,67.8,62.2,57.7,86,73,48,30.14,30.03,8,1,8,0.00
2013-8-12,81.5,72.4,66.7,71.4,65.8,62.1,97,80,65,30.07,29.83,13,0,13,0.00
2013-8-13,73.4,68.5,64.6,68.5,59.8,47.8,99,76,51,30.03,29.82,15,3,15,0.00
2013-8-14,75.2,64.3,57.4,55.6,51.6,46.9,82,64,47,30.18,30.03,12,3,12,0.00
2013-8-15,77.5,64.2,51.6,56.1,52.0,48.6,91,67,42,30.21,30.12,0,0,0,0.00
2013-8-16,79.0,67.2,55.2,58.5,54.9,52.0,91,67,42,30.21,30.14,0,0,0,0.00
2013-8-17,78.8,68.4,56.7,68.9,61.9,55.0,94,81,59,30.26,30.19,0,0,0,0.00
2013-8-18,80.1,70.4,58.5,66.6,62.1,56.8,96,77,57,30.23,30.12,0,0,0,0.00
2013-8-19,84.2,71.9,61.0,67.6,64.3,60.4,99,79,55,30.15,30.05,1,0,1,0.00
2013-8-20,87.1,75.6,64.2,69.8,64.6,60.3,89,70,47,30.18,30.09,5,1,5,0.00
2013-8-21,90.0,78.2,67.6,70.7,66.1,62.6,86,68,42,30.18,30.02,2,0,2,0.00
2013-8-22,85.8,76.1,67.8,72.9,68.9,29.8,93,79,61,30.08,27.12,2,0,2,0.00
2013-8-23,81.5,74.4,69.1,71.8,66.8,60.8,99,79,52,30.20,30.03,2,0,2,0.00
2013-8-24,80.4,71.7,59.9,64.2,61.1,57.7,94,71,52,30.33,30.19,0,0,0,0.00
2013-8-25,88.5,74.5,58.8,65.8,61.0,55.9,93,65,41,30.33,30.19,13,2,13,0.00
2013-8-26,88.9,77.8,67.1,71.1,65.6,60.4,81,67,51,30.21,30.01,19,6,19,0.00
2013-8-27,86.4,78.2,73.0,77.2,73.3,67.3,99,85,71,30.05,29.88,20,5,20,0.00
2013-8-28,82.9,76.8,72.7,77.5,74.7,72.3,99,94,80,29.99,29.83,10,2,10,0.00
2013-8-29,81.7,75.7,71.1,74.7,72.7,69.6,99,91,78,30.07,29.98,9,2,9,0.00
2013-8-30,90.1,78.7,68.5,73.4,70.5,68.0,99,78,53,30.01,29.80,14,4,14,0.00
2013-8-31,83.1,75.9,69.6,73.6,69.9,52.2,93,82,72,30.13,29.69,15,3,15,0.00
2013-9-1,85.5,76.6,72.3,74.7,72.5,71.1,98,88,68,29.84,29.74,8,2,8,0.00
2013-9-2,82.4,74.2,69.4,73.6,68.0,59.0,99,83,55,29.89,29.75,11,3,11,0.00
2013-9-3,75.9,66.3,60.8,59.2,56.7,52.9,85,72,54,30.04,29.89,9,2,11,0.00
2013-9-4,83.5,68.6,55.9,62.1,58.2,4.8,95,72,43,30.12,30.02,12,4,12,0.00
2013-9-5,73.4,68.3,63.3,65.3,57.0,49.6,91,69,48,30.26,30.07,13,4,13,0.00
2013-9-6,75.2,65.0,52.0,57.2,52.5,45.5,86,65,50,30.29,30.10,8,1,8,0.00
2013-9-7,85.1,70.5,58.1,68.7,59.8,49.8,85,70,55,30.11,29.91,14,3,14,0.00
2013-9-8,73.4,70.9,67.3,70.2,64.5,56.5,95,81,64,30.08,29.92,14,4,14,0.00
2013-9-9,81.9,69.1,55.9,73.2,63.2,51.3,89,82,68,30.08,29.94,10,1,10,0.00
2013-9-10,100.0,85.8,76.1,75.4,71.1,65.5,85,65,34,30.07,29.96,15,6,15,0.00
2013-9-11,97.5,83.4,75.0,74.1,70.4,61.3,81,67,31,30.10,29.94,15,5,15,0.00
2013-9-12,81.5,73.0,63.3,72.5,66.3,59.2,99,81,48,29.99,29.82,21,3,21,0.00
2013-9-13,64.6,59.8,54.9,60.3,49.7,41.5,86,69,60,30.13,29.92,16,6,16,0.00
2013-9-14,88.9,59.3,54.5,50.2,46.8,42.6,82,64,51,30.20,30.10,12,3,12,0.00
2013-9-15,74.8,61.3,51.6,58.3,50.8,46.2,87,70,43,30.16,30.04,14,3,14,0.00
2013-9-16,67.3,61.6,57.6,57.7,53.8,47.8,86,76,62,30.35,30.12,14,4,14,0.00
2013-9-17,69.4,61.0,50.4,56.5,50.7,46.0,87,70,50,30.40,30.22,9,3,9,0.00
2013-9-18,75.7,64.3,54.3,64.4,57.3,49.8,94,79,62,30.22,30.05,8,-2,8,0.00
2013-9-19,80.1,70.1,63.0,70.5,66.4,61.2,99,89,70,30.08,29.96,11,4,11,0.00
2013-9-20,91.0,75.6,68.5,72.9,69.5,66.0,99,84,48,29.99,29.73,15,5,15,0.00
2013-9-21,73.6,66.7,62.1,68.2,60.6,50.9,99,83,57,29.85,29.68,11,3,11,0.00
2013-9-22,64.6,58.4,54.9,52.5,46.5,42.6,76,65,50,30.07,29.85,12,3,12,0.00
2013-9-23,69.3,58.1,50.7,49.3,47.0,45.0,82,67,51,30.19,29.76,11,3,11,0.00
2013-9-24,68.2,56.8,45.7,55.4,48.7,43.3,93,76,55,30.16,29.99,11,1,11,0.00
2013-9-25,70.0,60.8,48.6,60.4,55.0,48.4,99,82,65,30.01,29.93,10,2,10,0.00
2013-9-26,72.7,64.2,50.5,61.3,56.6,49.6,99,77,58,30.14,29.98,9,1,9,0.00
2013-9-27,72.3,63.2,50.9,60.8,56.6,50.0,99,80,61,30.24,30.13,9,2,9,0.00
2013-9-28,81.1,66.1,52.7,65.8,57.4,52.0,99,76,41,30.21,30.07,8,2,8,0.00
2013-9-29,71.8,65.8,61.0,62.6,59.0,54.7,97,79,66,30.08,29.97,11,3,11,0.00
2013-9-30,73.6,65.1,61.3,63.9,61.6,57.9,99,89,65,30.03,29.95,9,2,9,0.00
2013-10-1,80.8,68.1,57.9,66.7,60.9,57.6,99,80,51,30.06,29.96,15,4,15,0.00
2013-10-2,77.5,69.4,63.9,67.1,63.4,58.6,93,82,68,30.09,30.00,10,3,10,0.00
2013-10-3,81.1,71.2,63.3,71.6,66.9,59.2,99,87,67,30.06,29.88,11,2,11,0.00
2013-10-4,79.3,71.5,67.6,72.1,67.9,65.1,96,89,73,30.07,30.00,12,4,12,0.00
2013-10-5,76.5,69.5,66.0,74.1,68.8,65.1,99,98,87,30.06,29.90,8,1,8,0.00
2013-10-6,77.9,69.2,56.5,70.9,66.3,55.2,99,91,66,29.91,29.67,15,4,15,0.00
2013-10-7,63.1,54.5,46.9,55.9,47.7,43.7,99,79,57,30.14,29.74,17,6,17,0.00
2013-10-8,68.4,56.9,44.1,54.3,49.7,43.5,99,79,55,30.31,30.14,8,2,8,0.00
2013-10-9,87.6,59.2,46.4,58.1,50.1,44.6,97,74,50,30.32,30.21,10,2,10,0.00
2013-10-10,85.1,57.5,45.5,55.0,50.1,43.3,93,78,58,30.23,30.11,8,2,8,0.00
2013-10-11,72.0,59.8,46.9,62.1,55.5,46.8,99,86,69,30.14,30.07,7,1,7,0.00
2013-10-12,73.6,63.3,51.4,63.3,58.1,50.9,99,84,65,30.12,30.06,8,1,8,0.00
2013-10-13,71.6,63.5,52.9,63.0,55.2,47.3,98,76,43,30.32,30.10,10,2,10,0.00
2013-10-14,66.4,61.1,53.4,53.4,50.6,46.0,80,69,58,30.38,30.26,11,4,11,0.00
2013-10-15,67.6,56.9,46.2,63.5,53.4,42.1,99,88,77,30.26,29.90,9,2,9,0.00
2013-10-16,69.6,62.2,49.3,64.4,56.6,45.0,99,83,55,29.94,29.83,17,4,17,0.00
2013-10-17,66.7,49.6,43.3,50.9,46.8,42.4,98,90,70,30.04,29.81,16,4,16,0.00
2013-10-18,66.4,54.7,43.0,48.4,45.3,41.4,95,73,46,29.97,29.88,17,5,17,0.00
2013-10-19,52.3,45.7,42.6,45.5,42.9,39.6,99,90,75,29.94,29.79,13,4,13,0.00
2013-10-20,69.8,51.7,42.1,43.7,40.3,37.2,88,67,38,29.96,29.89,21,7,21,0.00
2013-10-21,66.0,55.2,47.1,50.9,45.1,38.7,96,70,50,29.95,29.82,21,8,21,0.00
2013-10-22,56.3,44.2,34.9,39.2,32.6,28.6,84,65,40,30.06,29.89,17,5,17,0.00
2013-10-23,51.8,42.5,37.2,41.2,35.1,31.8,97,76,51,29.96,29.81,12,4,12,0.00
2013-10-24,48.0,39.0,32.9,36.3,33.2,30.4,92,80,56,30.17,29.95,12,5,12,0.00
2013-10-25,51.1,40.1,30.9,38.8,32.4,27.9,99,76,50,30.35,30.17,12,4,12,0.00
2013-10-26,49.8,42.6,37.0,40.3,31.9,26.8,95,67,53,30.19,29.85,23,9,23,0.00
2013-10-27,55.4,43.6,34.9,40.8,35.6,33.3,95,76,46,30.10,30.01,11,2,11,0.00
2013-10-28,74.1,46.4,36.5,46.4,39.4,31.6,88,77,63,30.35,30.07,9,2,9,0.00
2013-10-29,54.9,46.9,35.4,45.5,41.2,34.5,98,81,65,30.42,30.23,8,2,8,0.00
2013-10-30,61.2,51.0,37.9,56.1,46.3,37.2,99,85,67,30.23,30.00,8,1,8,0.00
2013-10-31,66.0,63.0,60.3,62.8,60.3,56.3,99,91,77,30.00,29.22,27,9,27,0.00
2013-11-1,65.3,53.0,46.9,63.1,47.8,42.1,98,83,74,29.71,29.20,41,10,41,0.00
2013-11-2,50.4,47.0,43.7,46.6,43.5,38.3,97,88,75,30.08,29.68,14,4,14,0.00
2013-11-3,49.5,43.8,36.9,38.7,36.0,28.8,80,74,64,30.45,30.07,12,4,12,0.00
2013-11-4,53.1,41.5,31.6,34.9,28.5,23.7,81,62,34,30.50,30.34,13,4,13,0.00
2013-11-5,59.7,52.5,45.9,48.4,42.3,34.9,79,68,64,30.40,30.22,11,3,11,0.00
2013-11-6,69.8,56.9,46.4,58.6,47.9,38.1,99,73,55,30.23,29.89,25,8,25,0.00
2013-11-7,62.6,43.6,37.4,45.0,35.0,28.0,96,73,53,30.17,29.97,17,6,17,0.00
2013-11-8,46.6,39.1,34.3,34.7,30.3,27.1,87,71,49,30.31,30.13,14,4,16,0.00
2013-11-9,60.6,49.6,35.8,42.6,36.4,29.8,79,61,48,30.22,29.86,30,10,30,0.00
2013-11-10,71.6,44.8,34.9,41.0,32.8,28.4,80,63,50,30.30,29.94,17,7,17,0.00
2013-11-11,48.7,39.4,28.9,41.0,33.6,25.2,99,81,58,30.28,30.03,21,7,21,0.00
2013-11-12,36.7,32.1,29.1,26.1,22.5,19.0,79,68,56,30.53,30.27,18,7,18,0.00
2013-11-13,68.2,30.8,22.5,26.1,20.6,16.7,87,67,41,30.56,30.10,25,9,25,0.00
2013-11-14,52.7,41.4,32.4,27.9,24.0,20.5,67,51,33,30.25,30.06,25,13,25,0.00
2013-11-15,51.6,45.5,41.2,34.5,28.0,23.2,68,50,38,30.12,30.06,18,8,21,0.00
2013-11-16,62.6,52.2,41.9,53.8,46.0,34.2,90,80,67,30.14,29.87,21,7,21,0.00
2013-11-17,67.8,61.1,50.7,60.4,55.7,42.4,99,83,67,30.29,29.39,38,17,38,0.00
2013-11-18,80.4,43.2,36.7,42.8,34.8,26.2,83,72,63,30.32,29.60,28,12,29,0.00
2013-11-19,41.7,36.6,31.3,27.1,25.7,24.1,77,65,54,30.41,30.15,15,4,15,0.00
2013-11-20,49.1,38.5,29.7,29.5,25.0,21.0,79,60,38,30.43,30.26,15,4,15,0.00
2013-11-21,47.8,43.7,40.3,45.0,36.9,22.6,99,78,45,30.34,30.19,17,5,17,0.00
2013-11-22,75.9,44.1,35.4,49.1,42.1,28.6,99,93,73,30.37,30.06,19,6,19,0.00
2013-11-23,35.8,29.4,22.6,29.7,20.6,7.3,91,70,45,30.49,30.27,25,8,25,0.00
2013-11-24,45.0,21.9,19.8,15.4,10.8,7.0,82,62,45,30.59,30.47,19,7,19,0.00
2013-11-25,35.1,27.6,19.6,20.5,16.1,14.0,83,63,47,30.47,30.14,26,10,26,0.00
2013-11-26,34.3,32.9,31.5,30.2,27.0,19.0,87,79,53,30.16,29.89,18,4,18,0.00
2013-11-27,64.0,28.4,24.8,30.4,19.3,12.7,86,69,55,30.18,29.86,21,8,21,0.00
2013-11-28,31.1,25.9,19.6,23.0,17.5,12.7,85,70,59,30.40,30.18,15,5,15,0.00
2013-11-29,37.9,29.0,18.7,26.1,21.6,15.4,89,74,59,30.64,30.46,8,2,8,0.00
2013-11-30,46.9,35.7,28.0,30.0,25.8,20.1,78,68,49,30.58,30.13,16,6,16,0.00
2013-12-1,47.8,38.7,32.2,34.9,31.0,27.9,88,74,58,30.14,29.97,13,4,13,0.00
2013-12-2,39.0,36.1,32.7,35.6,33.4,31.8,98,90,84,29.98,29.88,7,1,7,0.00
2013-12-3,44.1,39.1,35.2,42.8,36.0,32.4,95,89,78,29.91,29.82,9,2,9,0.07
2013-12-4,62.1,52.7,38.7,54.3,47.8,37.4,99,84,74,29.92,29.70,17,4,17,0.00
2013-12-5,91.0,48.5,30.9,57.2,41.9,27.1,96,78,65,30.17,29.68,21,10,21,0.00
2013-12-6,33.3,30.7,26.8,29.8,24.9,19.6,96,79,70,30.37,30.12,11,3,11,0.00
2013-12-7,60.3,24.1,20.7,19.9,15.3,13.1,75,69,59,30.59,30.06,15,4,15,0.00
2013-12-8,29.5,25.0,17.2,27.5,18.3,12.7,96,76,63,30.58,30.00,16,4,16,0.00
2013-12-9,33.3,29.2,22.5,33.1,25.3,14.0,99,86,69,30.16,29.91,24,10,24,0.00
2013-12-10,27.5,23.0,20.5,14.4,12.8,10.2,72,65,48,30.24,30.01,25,10,25,0.00
2013-12-11,58.5,20.2,16.0,21.9,14.3,7.3,92,78,67,30.45,30.23,18,8,18,0.00
2013-12-12,18.7,13.1,6.8,7.9,4.9,2.1,84,70,51,30.47,30.22,22,9,22,0.00
2013-12-13,33.8,24.8,16.3,24.6,15.4,5.9,80,67,59,30.26,30.18,18,6,18,0.00
2013-12-14,32.5,29.5,25.7,32.4,28.8,23.4,99,97,78,30.24,29.72,11,2,11,0.00
2013-12-15,27.7,20.7,13.6,25.9,17.4,9.1,99,89,79,30.08,29.77,16,5,19,0.00
2013-12-16,35.2,16.4,8.2,19.4,11.1,5.2,92,80,65,30.25,29.99,12,3,12,0.00
2013-12-17,26.6,23.9,18.3,25.5,21.8,16.7,99,92,85,30.05,29.91,20,8,20,0.00
2013-12-18,66.9,25.5,21.0,23.0,20.1,15.8,92,80,63,30.17,29.95,22,10,22,0.00
2013-12-19,44.6,40.4,32.7,37.2,31.1,21.0,76,69,57,30.01,29.91,27,9,27,0.00
2013-12-20,57.6,48.1,42.4,55.9,45.0,37.4,99,89,76,29.92,29.75,21,10,21,0.00
2013-12-21,59.0,42.3,33.4,57.6,41.9,33.3,99,98,95,29.86,29.56,23,5,23,0.00
2013-12-22,48.2,39.0,34.0,48.0,38.6,33.8,99,98,89,29.99,29.42,25,6,25,0.00
2013-12-23,37.4,34.3,25.3,36.3,31.5,17.4,96,89,70,30.31,29.99,15,6,15,0.00
2013-12-24,67.6,19.2,14.4,19.9,12.3,8.4,82,74,63,30.54,30.01,16,7,16,0.00
2013-12-25,27.1,22.2,16.2,24.4,15.4,11.3,90,75,58,30.51,30.15,17,7,17,0.00
2013-12-26,31.8,28.5,25.2,28.9,23.6,18.5,96,82,68,30.32,30.07,20,8,20,0.00
2013-12-27,74.5,37.0,28.4,32.9,28.9,21.7,80,72,64,30.34,30.04,21,8,21,0.00
2013-12-28,52.2,43.9,39.0,37.9,33.9,31.5,76,68,55,30.16,29.95,21,11,21,0.00
2013-12-29,46.6,40.0,27.7,35.8,32.0,24.1,99,73,61,29.99,29.70,16,7,16,0.00
2013-12-30,27.5,22.1,19.6,24.1,14.8,10.2,91,73,60,30.26,29.98,17,5,17,0.00
2013-12-31,22.6,19.1,16.3,18.1,13.4,9.5,92,78,68,30.34,30.07,21,9,21,0.00
2014-1-1,25.5,21.6,17.2,23.9,19.7,14.7,96,92,86,30.33,30.13,16,4,16,0.00
2014-1-2,25.7,18.3,10.4,25.2,17.0,6.6,99,95,84,30.20,29.94,23,12,23,0.00